createdAt,value
2022-12-19T00:04:07.539Z,-6.04
2022-12-19T00:09:29.766Z,-6.09
2022-12-19T00:14:53.990Z,-6.03
2022-12-19T00:20:18.724Z,-6.10
2022-12-19T00:25:40.572Z,-6.19
2022-12-19T00:31:04.404Z,-6.21
2022-12-19T00:36:33.924Z,-6.15
2022-12-19T00:41:55.698Z,-6.38
2022-12-19T00:47:17.560Z,-6.51
2022-12-19T00:52:39.354Z,-6.39
2022-12-19T00:58:01.142Z,-6.31
2022-12-19T01:03:23.556Z,-6.25
2022-12-19T01:08:45.510Z,-6.50
2022-12-19T01:14:07.346Z,-6.30
2022-12-19T01:19:29.282Z,-6.30
2022-12-19T01:24:51.175Z,-6.41
2022-12-19T01:30:13.287Z,-6.38
2022-12-19T01:35:36.388Z,-6.28
2022-12-19T01:40:58.292Z,-6.39
2022-12-19T01:46:43.571Z,-6.51
2022-12-19T01:52:08.902Z,-6.54
2022-12-19T01:57:33.747Z,-6.52
2022-12-19T02:03:27.851Z,-6.64
2022-12-19T02:08:51.156Z,-6.53
2022-12-19T02:14:13.223Z,-6.46
2022-12-19T02:20:03.033Z,-6.46
2022-12-19T02:25:43.701Z,-6.51
2022-12-19T02:31:08.184Z,-6.55
2022-12-19T02:36:50.810Z,-6.80
2022-12-19T02:42:25.158Z,-6.70
2022-12-19T02:47:49.570Z,-6.81
2022-12-19T02:53:13.369Z,-6.76
2022-12-19T02:58:56.524Z,-6.80
2022-12-19T03:04:30.505Z,-6.88
2022-12-19T03:09:56.784Z,-7.09
2022-12-19T03:15:19.995Z,-7.18
2022-12-19T03:20:51.977Z,-7.36
2022-12-19T03:26:22.568Z,-7.30
2022-12-19T03:31:46.363Z,-7.45
2022-12-19T03:37:14.376Z,-7.51
2022-12-19T03:42:39.608Z,-7.72
2022-12-19T03:48:09.983Z,-7.71
2022-12-19T03:53:34.486Z,-7.79
2022-12-19T03:59:04.836Z,-7.85
2022-12-19T04:04:27.372Z,-8.14
2022-12-19T04:09:50.645Z,-8.06
2022-12-19T04:15:12.980Z,-8.09
2022-12-19T04:20:38.114Z,-8.25
2022-12-19T04:26:03.411Z,-8.16
2022-12-19T04:31:25.419Z,-8.27
2022-12-19T04:36:48.953Z,-8.30
2022-12-19T04:42:10.889Z,-8.53
2022-12-19T04:47:32.791Z,-8.53
2022-12-19T04:52:57.210Z,-8.46
2022-12-19T04:58:22.023Z,-8.48
2022-12-19T05:03:44.169Z,-8.58
2022-12-19T05:09:06.167Z,-8.59
2022-12-19T05:14:28.017Z,-8.60
2022-12-19T05:19:49.836Z,-8.50
2022-12-19T05:25:11.634Z,-8.63
2022-12-19T05:30:33.432Z,-8.74
2022-12-19T05:35:55.261Z,-8.75
2022-12-19T05:41:19.641Z,-8.73
2022-12-19T05:46:41.548Z,-8.60
2022-12-19T05:52:03.480Z,-8.68
2022-12-19T05:57:25.447Z,-8.71
2022-12-19T06:02:47.410Z,-8.83
2022-12-19T06:08:09.265Z,-8.76
2022-12-19T06:13:32.142Z,-8.73
2022-12-19T06:18:54.669Z,-8.81
2022-12-19T06:24:16.891Z,-8.91
2022-12-19T06:29:38.696Z,-8.79
2022-12-19T06:35:04.572Z,-8.91
2022-12-19T06:40:26.831Z,-8.86
2022-12-19T06:45:49.017Z,-8.93
2022-12-19T06:51:10.857Z,-8.62
2022-12-19T06:56:36.786Z,-8.73
2022-12-19T07:02:18.473Z,-8.79
2022-12-19T07:07:40.396Z,-8.64
2022-12-19T07:13:02.269Z,-8.86
2022-12-19T07:18:24.184Z,-7.53
2022-12-19T07:23:46.337Z,-7.35
2022-12-19T07:29:10.477Z,-6.15
2022-12-19T07:34:33.750Z,-5.67
2022-12-19T07:39:55.599Z,-6.11
2022-12-19T07:45:17.469Z,-3.88
2022-12-19T07:50:39.317Z,-3.77
2022-12-19T07:56:01.088Z,-6.13
2022-12-19T08:01:23.085Z,-6.91
2022-12-19T08:06:45.013Z,-7.17
2022-12-19T08:12:07.182Z,-6.55
2022-12-19T08:17:29.084Z,-6.38
2022-12-19T08:22:50.940Z,-5.44
2022-12-19T08:28:12.803Z,-3.18
2022-12-19T08:33:35.011Z,-0.37
2022-12-19T08:38:56.860Z,-0.50
2022-12-19T08:44:18.901Z,0.64
2022-12-19T08:49:40.776Z,-0.32
2022-12-19T08:55:02.826Z,1.23
2022-12-19T09:00:24.835Z,0.25
2022-12-19T09:06:03.880Z,0.89
2022-12-19T09:11:28.773Z,0.57
2022-12-19T09:16:50.934Z,0.41
2022-12-19T09:22:12.901Z,0.77
2022-12-19T09:28:01.354Z,1.27
2022-12-19T09:33:16.527Z,-0.73
2022-12-19T09:38:38.394Z,-0.88
2022-12-19T09:44:15.635Z,-2.28
2022-12-19T09:49:43.172Z,-1.32
2022-12-19T09:55:24.156Z,-1.71
2022-12-19T10:00:59.546Z,-2.29
2022-12-19T10:07:12.934Z,-3.26
2022-12-19T10:12:45.911Z,-4.21
2022-12-19T10:18:13.058Z,-3.99
2022-12-19T10:24:06.183Z,-4.41
2022-12-19T10:29:50.037Z,-4.87
2022-12-19T10:35:14.559Z,-4.76
2022-12-19T10:40:49.197Z,-4.84
2022-12-19T10:46:17.411Z,-4.61
2022-12-19T10:51:39.707Z,-4.84
2022-12-19T10:57:27.206Z,-4.90
2022-12-19T11:02:51.908Z,-5.23
2022-12-19T11:08:20.957Z,-5.11
2022-12-19T11:18:35.186Z,-4.93
2022-12-19T11:29:41.907Z,-5.09
2022-12-19T11:30:59.587Z,-5.08
2022-12-19T11:37:06.804Z,-4.99
2022-12-19T11:42:37.283Z,-5.11
2022-12-19T11:48:08.885Z,-5.41
2022-12-19T11:53:40.913Z,-5.22
2022-12-19T11:59:18.702Z,-5.00
2022-12-19T12:05:08.120Z,-5.01
2022-12-19T12:15:06.897Z,-5.47
2022-12-19T12:28:01.879Z,-5.38
2022-12-19T12:31:07.145Z,-5.51
2022-12-19T12:31:42.621Z,-5.29
2022-12-19T12:35:46.563Z,-5.21
2022-12-19T12:40:58.509Z,-5.34
2022-12-19T12:46:26.230Z,-5.30
2022-12-19T12:51:49.119Z,-5.38
2022-12-19T12:57:39.989Z,-5.41
2022-12-19T13:03:07.116Z,-5.56
2022-12-19T13:08:38.034Z,-5.42
2022-12-19T13:14:00.744Z,-5.59
2022-12-19T13:19:29.090Z,-5.42
2022-12-19T13:24:53.229Z,-5.57
2022-12-19T13:30:16.735Z,-5.60
2022-12-19T13:39:04.835Z,-5.86
2022-12-19T13:41:39.660Z,-5.91
2022-12-19T13:47:01.510Z,-5.87
2022-12-19T13:52:23.324Z,-5.78
2022-12-19T13:57:53.580Z,-5.90
2022-12-19T14:03:20.953Z,-5.89
2022-12-19T14:08:45.733Z,-5.93
2022-12-19T14:14:25.534Z,-5.95
2022-12-19T14:19:52.635Z,-5.97
2022-12-19T14:28:15.783Z,-6.07
2022-12-19T14:31:25.908Z,-6.11
2022-12-19T14:36:52.478Z,-6.20
2022-12-19T14:42:16.685Z,-6.18
2022-12-19T14:54:04.969Z,-6.03
2022-12-19T14:54:22.085Z,-6.18
2022-12-19T14:59:05.708Z,-6.20
2022-12-19T15:04:53.009Z,-6.19
2022-12-19T15:11:05.552Z,-6.30
2022-12-19T15:16:02.318Z,-6.19
2022-12-19T15:21:24.808Z,-6.28
2022-12-19T15:26:50.218Z,-6.21
2022-12-19T15:32:16.430Z,-6.19
2022-12-19T15:37:38.291Z,-6.14
2022-12-19T15:43:00.617Z,-6.16
2022-12-19T15:48:22.581Z,-6.21
2022-12-19T15:53:44.469Z,-6.24
2022-12-19T15:59:21.501Z,-6.01
2022-12-19T16:04:44.515Z,-5.99
2022-12-19T16:10:07.370Z,-5.92
2022-12-19T16:15:31.949Z,-6.02
2022-12-19T16:20:55.773Z,-5.76
2022-12-19T16:26:33.654Z,-5.76
2022-12-19T16:31:55.913Z,-5.73
2022-12-19T16:37:17.908Z,-5.96
2022-12-19T16:42:39.790Z,-5.73
2022-12-19T16:48:01.576Z,-5.87
2022-12-19T16:53:23.542Z,-5.89
2022-12-19T16:58:45.412Z,-5.74
2022-12-19T17:04:07.228Z,-6.01
2022-12-19T17:09:29.062Z,-5.93
2022-12-19T17:14:50.928Z,-5.90
2022-12-19T17:20:21.403Z,-5.99
2022-12-19T17:25:43.811Z,-5.84
2022-12-19T17:31:24.157Z,-5.87
2022-12-19T17:36:46.254Z,-5.91
2022-12-19T17:42:18.435Z,-5.83
2022-12-19T17:47:40.608Z,-5.81
2022-12-19T17:53:02.480Z,-5.74
2022-12-19T17:58:24.347Z,-5.71
2022-12-19T18:03:47.296Z,-5.46
2022-12-19T18:09:24.096Z,-5.57
2022-12-19T18:14:46.011Z,-5.42
2022-12-19T18:20:32.034Z,-5.36
2022-12-19T18:26:00.925Z,-5.26
2022-12-19T18:31:25.826Z,-5.39
2022-12-19T18:36:48.530Z,-5.24
2022-12-19T18:42:20.635Z,-5.12
2022-12-19T18:47:49.735Z,-5.15
2022-12-19T18:53:15.747Z,-5.14
2022-12-19T18:58:37.765Z,-5.05
2022-12-19T19:03:59.732Z,-4.93
2022-12-19T19:09:21.869Z,-5.00
2022-12-19T19:14:44.296Z,-4.87
2022-12-19T19:20:06.974Z,-4.79
2022-12-19T19:25:28.805Z,-4.87
2022-12-19T19:30:52.141Z,-4.91
2022-12-19T19:36:23.076Z,-5.04
2022-12-19T19:41:44.938Z,-4.69
2022-12-19T19:47:06.919Z,-4.65
2022-12-19T19:52:28.745Z,-4.71
2022-12-19T19:57:50.695Z,-4.66
2022-12-19T20:03:18.562Z,-4.55
2022-12-19T20:08:44.197Z,-4.48
2022-12-19T20:14:06.061Z,-4.36
2022-12-19T20:19:27.985Z,-4.32
2022-12-19T20:24:49.852Z,-4.17
2022-12-19T20:30:12.086Z,-4.10
2022-12-19T20:35:33.926Z,-4.00
2022-12-19T20:40:55.776Z,-4.02
2022-12-19T20:46:20.272Z,-3.85
2022-12-19T20:51:42.215Z,-3.73
2022-12-19T20:57:04.000Z,-3.67
2022-12-19T21:02:25.937Z,-3.61
2022-12-19T21:07:47.828Z,-3.46
2022-12-19T21:13:09.638Z,-3.40
2022-12-19T21:18:31.544Z,-3.24
2022-12-19T21:23:54.904Z,-3.12
2022-12-19T21:29:16.757Z,-3.03
2022-12-19T21:34:38.603Z,-3.10
2022-12-19T21:40:00.506Z,-2.93
2022-12-19T21:45:22.319Z,-2.81
2022-12-19T21:50:44.213Z,-2.92
2022-12-19T21:56:12.268Z,-2.94
2022-12-19T22:01:34.282Z,-2.78
2022-12-19T22:06:56.267Z,-2.81
2022-12-19T22:12:18.126Z,-2.77
2022-12-19T22:17:39.948Z,-2.79
2022-12-19T22:23:01.773Z,-2.80
2022-12-19T22:28:23.609Z,-2.84
2022-12-19T22:33:46.442Z,-2.66
2022-12-19T22:39:13.573Z,-2.43
2022-12-19T22:44:35.469Z,-2.34
2022-12-19T22:49:57.420Z,-2.23
2022-12-19T22:55:19.312Z,-2.07
2022-12-19T23:00:42.244Z,-1.87
2022-12-19T23:06:04.221Z,-1.85
2022-12-19T23:11:33.187Z,-1.83
2022-12-19T23:16:55.139Z,-1.78
2022-12-19T23:22:17.043Z,-1.71
2022-12-19T23:27:40.386Z,-1.53
2022-12-19T23:33:02.382Z,-1.53
2022-12-19T23:38:24.219Z,-1.55
2022-12-19T23:43:46.160Z,-1.38
2022-12-19T23:49:08.173Z,-1.26
2022-12-19T23:54:30.273Z,-1.22
2022-12-19T23:59:52.172Z,-1.35
